createdAt,value
2019-05-21T00:00:39.757Z,24.50
2019-05-21T00:03:09.109Z,24.57
2019-05-21T00:05:38.456Z,24.35
2019-05-21T00:08:07.774Z,24.72
2019-05-21T00:10:37.070Z,26.55
2019-05-21T00:13:06.396Z,26.12
2019-05-21T00:15:35.692Z,28.77
2019-05-21T00:18:05.226Z,27.42
2019-05-21T00:20:34.771Z,29.42
2019-05-21T00:23:04.021Z,27.55
2019-05-21T00:25:33.303Z,27.80
2019-05-21T00:28:39.715Z,26.62
2019-05-21T00:31:44.969Z,26.52
2019-05-21T00:34:50.694Z,26.73
2019-05-21T00:37:55.779Z,26.20
2019-05-21T00:41:00.959Z,23.98
2019-05-21T00:43:46.371Z,24.35
2019-05-21T00:46:15.658Z,23.95
2019-05-21T00:48:45.184Z,23.92
2019-05-21T00:51:14.474Z,25.15
2019-05-21T00:53:43.777Z,25.37
2019-05-21T00:56:13.091Z,25.43
2019-05-21T00:58:42.352Z,25.48
2019-05-21T01:01:11.853Z,25.65
2019-05-21T01:03:43.280Z,26.23
2019-05-21T01:06:12.182Z,25.85
2019-05-21T01:08:41.408Z,27.65
2019-05-21T01:11:10.674Z,27.55
2019-05-21T01:13:39.968Z,27.40
2019-05-21T01:16:09.296Z,27.77
2019-05-21T01:18:38.558Z,26.90
2019-05-21T01:21:07.940Z,24.57
2019-05-21T01:23:37.196Z,23.87
2019-05-21T01:26:06.464Z,24.18
2019-05-21T01:28:35.702Z,25.72
2019-05-21T01:31:04.991Z,25.32
2019-05-21T01:33:34.311Z,25.43
2019-05-21T01:36:04.671Z,24.47
2019-05-21T01:38:33.914Z,24.85
2019-05-21T01:41:03.189Z,25.02
2019-05-21T01:43:32.431Z,25.72
2019-05-21T01:46:01.711Z,25.82
2019-05-21T01:48:30.973Z,26.15
2019-05-21T01:51:00.297Z,26.00
2019-05-21T01:53:29.563Z,27.58
2019-05-21T01:55:58.852Z,26.52
2019-05-21T01:58:28.402Z,27.82
2019-05-21T02:00:57.843Z,28.25
2019-05-21T02:03:27.114Z,27.87
2019-05-21T02:05:56.581Z,29.18
2019-05-21T02:08:25.839Z,28.60
2019-05-21T02:10:55.129Z,28.55
2019-05-21T02:13:24.402Z,28.40
2019-05-21T02:15:53.699Z,28.98
2019-05-21T02:18:23.101Z,29.72
2019-05-21T02:20:52.380Z,29.85
2019-05-21T02:23:21.686Z,31.50
2019-05-21T02:25:50.923Z,29.95
2019-05-21T02:28:22.616Z,29.63
2019-05-21T02:30:56.040Z,30.05
2019-05-21T02:33:22.251Z,30.35
2019-05-21T02:35:54.694Z,31.25
2019-05-21T02:38:22.518Z,31.15
2019-05-21T02:40:51.812Z,31.42
2019-05-21T02:43:21.089Z,30.50
2019-05-21T02:45:50.348Z,31.37
2019-05-21T02:48:19.646Z,31.52
2019-05-21T02:50:48.892Z,31.23
2019-05-21T02:53:18.177Z,32.05
2019-05-21T02:55:47.455Z,32.50
2019-05-21T02:58:16.744Z,32.10
2019-05-21T03:01:08.086Z,32.40
2019-05-21T03:03:37.440Z,32.10
2019-05-21T03:06:13.888Z,31.68
2019-05-21T03:08:37.707Z,31.10
2019-05-21T03:11:06.961Z,31.90
2019-05-21T03:13:36.255Z,31.15
2019-05-21T03:16:05.540Z,30.77
2019-05-21T03:18:34.853Z,32.78
2019-05-21T03:21:04.101Z,33.73
2019-05-21T03:23:33.414Z,33.08
2019-05-21T03:26:02.682Z,33.38
2019-05-21T03:28:31.953Z,34.45
2019-05-21T03:31:01.291Z,35.00
2019-05-21T03:33:30.637Z,35.90
2019-05-21T03:35:59.901Z,35.28
2019-05-21T03:38:29.188Z,35.33
2019-05-21T03:40:58.496Z,33.53
2019-05-21T03:43:27.781Z,36.40
2019-05-21T03:45:57.112Z,37.75
2019-05-21T03:48:26.405Z,35.15
2019-05-21T03:50:55.677Z,36.53
2019-05-21T03:53:24.959Z,38.00
2019-05-21T03:55:54.239Z,37.28
2019-05-21T03:58:23.520Z,36.77
2019-05-21T04:00:52.822Z,36.03
2019-05-21T04:03:22.833Z,38.35
2019-05-21T04:05:52.085Z,37.42
2019-05-21T04:08:21.459Z,37.03
2019-05-21T04:10:50.808Z,37.03
2019-05-21T04:13:20.099Z,37.00
2019-05-21T04:16:01.752Z,38.45
2019-05-21T04:18:39.207Z,37.23
2019-05-21T04:21:08.601Z,37.65
2019-05-21T04:23:37.862Z,37.93
2019-05-21T04:26:07.172Z,36.20
2019-05-21T04:28:36.483Z,36.23
2019-05-21T04:31:05.815Z,35.75
2019-05-21T04:33:35.120Z,35.92
2019-05-21T04:36:04.660Z,36.38
2019-05-21T04:38:34.015Z,37.75
2019-05-21T04:41:03.355Z,35.05
2019-05-21T04:43:32.671Z,36.42
2019-05-21T04:46:02.026Z,34.40
2019-05-21T04:48:31.331Z,35.25
2019-05-21T04:51:00.625Z,34.40
2019-05-21T04:53:29.881Z,33.10
2019-05-21T04:55:59.193Z,33.30
2019-05-21T04:58:28.490Z,32.83
2019-05-21T05:00:57.732Z,32.38
2019-05-21T05:03:27.030Z,31.00
2019-05-21T05:05:56.302Z,30.80
2019-05-21T05:08:25.673Z,30.88
2019-05-21T05:10:54.963Z,29.65
2019-05-21T05:13:24.287Z,28.80
2019-05-21T05:15:53.551Z,28.73
2019-05-21T05:18:22.948Z,28.60
2019-05-21T05:20:52.268Z,28.90
2019-05-21T05:23:21.682Z,29.55
2019-05-21T05:25:51.010Z,29.98
2019-05-21T05:28:20.319Z,28.25
2019-05-21T05:30:49.646Z,27.20
2019-05-21T05:33:18.941Z,28.77
2019-05-21T05:35:49.100Z,27.50
2019-05-21T05:38:26.012Z,27.95
2019-05-21T05:40:55.362Z,29.18
2019-05-21T05:43:24.724Z,28.57
2019-05-21T05:45:54.040Z,28.90
2019-05-21T05:48:23.564Z,28.05
2019-05-21T05:50:54.769Z,28.87
2019-05-21T05:53:24.111Z,29.30
2019-05-21T05:55:53.513Z,27.90
2019-05-21T05:58:22.821Z,28.65
2019-05-21T06:00:52.146Z,25.85
2019-05-21T06:03:21.485Z,27.35
2019-05-21T06:05:50.793Z,27.17
2019-05-21T06:08:20.105Z,26.33
2019-05-21T06:10:49.497Z,25.68
2019-05-21T06:13:18.811Z,27.70
2019-05-21T06:15:48.082Z,26.45
2019-05-21T06:18:17.457Z,25.48
2019-05-21T06:20:46.792Z,25.62
2019-05-21T06:23:16.160Z,25.90
2019-05-21T06:25:45.493Z,26.10
2019-05-21T06:28:14.817Z,24.72
2019-05-21T06:30:44.130Z,28.02
2019-05-21T06:33:13.425Z,25.57
2019-05-21T06:35:42.747Z,25.57
2019-05-21T06:38:17.717Z,25.17
2019-05-21T06:40:43.052Z,25.08
2019-05-21T06:43:12.358Z,26.55
2019-05-21T06:45:42.029Z,26.00
2019-05-21T06:48:11.276Z,26.23
2019-05-21T06:50:40.569Z,25.37
2019-05-21T06:53:09.883Z,27.02
2019-05-21T06:55:39.218Z,27.62
2019-05-21T06:58:08.566Z,27.00
2019-05-21T07:00:37.864Z,27.67
2019-05-21T07:03:07.170Z,26.65
2019-05-21T07:05:36.714Z,27.22
2019-05-21T07:08:05.998Z,26.62
2019-05-21T07:10:35.378Z,26.42
2019-05-21T07:13:04.762Z,26.75
2019-05-21T07:15:34.038Z,27.32
2019-05-21T07:18:03.356Z,28.02
2019-05-21T07:20:32.704Z,28.57
2019-05-21T07:23:02.391Z,28.52
2019-05-21T07:25:31.700Z,27.20
2019-05-21T07:28:00.976Z,27.98
2019-05-21T07:30:30.370Z,28.67
2019-05-21T07:32:59.719Z,29.12
2019-05-21T07:35:29.050Z,28.98
2019-05-21T07:37:58.408Z,27.87
2019-05-21T07:40:27.770Z,28.12
2019-05-21T07:42:57.127Z,29.20
2019-05-21T07:45:26.407Z,27.80
2019-05-21T07:47:55.743Z,28.10
2019-05-21T07:50:25.036Z,27.98
2019-05-21T07:52:54.480Z,27.32
2019-05-21T07:55:23.881Z,27.98
2019-05-21T07:57:53.265Z,27.82
2019-05-21T08:00:25.554Z,27.87
2019-05-21T08:02:54.958Z,28.35
2019-05-21T08:05:24.259Z,28.02
2019-05-21T08:07:53.621Z,27.17
2019-05-21T08:10:22.871Z,27.55
2019-05-21T08:12:52.205Z,28.62
2019-05-21T08:15:21.569Z,30.10
2019-05-21T08:17:50.929Z,29.42
2019-05-21T08:20:24.823Z,30.45
2019-05-21T08:22:54.116Z,31.10
2019-05-21T08:25:23.457Z,32.38
2019-05-21T08:27:52.943Z,33.65
2019-05-21T08:30:22.574Z,35.35
2019-05-21T08:32:51.905Z,30.50
2019-05-21T08:35:21.299Z,32.05
2019-05-21T08:37:50.593Z,31.52
2019-05-21T08:40:20.107Z,33.23
2019-05-21T08:42:49.471Z,33.05
2019-05-21T08:45:18.864Z,31.05
2019-05-21T08:47:48.191Z,31.02
2019-05-21T08:50:17.605Z,31.65
2019-05-21T08:52:46.928Z,35.25
2019-05-21T08:55:16.260Z,31.93
2019-05-21T08:57:45.549Z,31.80
2019-05-21T09:00:17.356Z,30.80
2019-05-21T09:02:46.618Z,30.80
2019-05-21T09:05:16.169Z,29.72
2019-05-21T09:07:45.573Z,30.10
2019-05-21T09:10:15.199Z,30.32
2019-05-21T09:12:44.510Z,29.75
2019-05-21T09:15:14.343Z,30.72
2019-05-21T09:17:43.657Z,30.25
2019-05-21T09:20:13.693Z,32.85
2019-05-21T09:22:43.041Z,31.48
2019-05-21T09:25:12.499Z,32.40
2019-05-21T09:27:41.829Z,30.75
2019-05-21T09:30:13.049Z,30.52
2019-05-21T09:32:42.370Z,28.77
2019-05-21T09:35:12.006Z,32.38
2019-05-21T09:37:41.261Z,32.03
2019-05-21T09:40:11.619Z,29.90
2019-05-21T09:42:40.916Z,30.17
2019-05-21T09:45:11.164Z,30.52
2019-05-21T09:47:40.648Z,31.37
2019-05-21T09:50:11.896Z,29.65
2019-05-21T09:52:42.692Z,30.02
2019-05-21T09:55:12.322Z,28.42
2019-05-21T09:57:48.534Z,27.98
2019-05-21T10:00:37.429Z,28.20
2019-05-21T10:03:09.674Z,30.40
2019-05-21T10:05:38.995Z,28.62
2019-05-21T10:08:08.334Z,26.75
2019-05-21T10:10:37.675Z,26.68
2019-05-21T10:13:06.984Z,27.48
2019-05-21T10:15:36.369Z,27.10
2019-05-21T10:18:05.725Z,28.73
2019-05-21T10:20:35.122Z,29.25
2019-05-21T10:23:04.448Z,28.42
2019-05-21T10:25:33.790Z,29.90
2019-05-21T10:28:03.146Z,30.05
2019-05-21T10:30:32.449Z,29.35
2019-05-21T10:33:01.772Z,30.05
2019-05-21T10:35:31.117Z,29.07
2019-05-21T10:38:00.410Z,29.30
2019-05-21T10:40:29.701Z,29.35
2019-05-21T10:42:59.030Z,28.67
2019-05-21T10:45:28.339Z,29.15
2019-05-21T10:47:57.658Z,37.23
2019-05-21T10:50:26.968Z,29.35
2019-05-21T10:52:56.278Z,28.87
2019-05-21T10:55:25.609Z,30.10
2019-05-21T10:57:54.918Z,27.60
2019-05-21T11:00:25.310Z,27.82
2019-05-21T11:02:59.469Z,28.98
2019-05-21T11:05:43.585Z,27.93
2019-05-21T11:08:23.618Z,28.80
2019-05-21T11:10:43.870Z,27.48
2019-05-21T11:13:13.198Z,28.73
2019-05-21T11:15:42.483Z,25.97
2019-05-21T11:18:12.263Z,27.13
2019-05-21T11:20:41.732Z,26.70
2019-05-21T11:23:11.085Z,37.50
2019-05-21T11:25:40.394Z,29.05
2019-05-21T11:28:09.802Z,29.72
2019-05-21T11:30:39.134Z,28.40
2019-05-21T11:33:08.496Z,29.63
2019-05-21T11:35:37.820Z,28.15
2019-05-21T11:38:07.176Z,27.37
2019-05-21T11:40:36.519Z,27.98
2019-05-21T11:43:05.847Z,27.98
2019-05-21T11:45:35.311Z,27.52
2019-05-21T11:48:04.632Z,27.73
2019-05-21T11:50:34.021Z,28.85
2019-05-21T11:53:03.341Z,28.85
2019-05-21T11:55:32.661Z,29.23
2019-05-21T11:58:01.942Z,28.42
2019-05-21T12:00:31.386Z,27.95
2019-05-21T12:03:00.758Z,27.30
2019-05-21T12:05:30.154Z,27.37
2019-05-21T12:07:59.467Z,28.67
2019-05-21T12:10:28.810Z,25.75
2019-05-21T12:12:58.253Z,25.27
2019-05-21T12:15:27.599Z,25.08
2019-05-21T12:17:56.962Z,26.33
2019-05-21T12:20:36.063Z,26.15
2019-05-21T12:22:57.314Z,26.35
2019-05-21T12:25:26.681Z,24.80
2019-05-21T12:27:55.993Z,24.23
2019-05-21T12:30:25.790Z,25.17
2019-05-21T12:32:55.108Z,26.20
2019-05-21T12:35:24.460Z,25.80
2019-05-21T12:37:53.790Z,26.23
2019-05-21T12:40:23.342Z,27.10
2019-05-21T12:42:52.681Z,26.50
2019-05-21T12:45:22.007Z,25.72
2019-05-21T12:47:51.347Z,27.15
2019-05-21T12:50:20.960Z,26.07
2019-05-21T12:52:50.354Z,26.23
2019-05-21T12:55:19.663Z,25.85
2019-05-21T12:57:48.958Z,26.23
2019-05-21T13:00:18.970Z,26.87
2019-05-21T13:02:48.268Z,25.12
2019-05-21T13:05:17.859Z,24.82
2019-05-21T13:07:47.169Z,25.10
2019-05-21T13:10:16.515Z,24.25
2019-05-21T13:12:45.981Z,24.20
2019-05-21T13:15:15.441Z,25.23
2019-05-21T13:17:44.909Z,24.35
2019-05-21T13:20:14.500Z,25.25
2019-05-21T13:22:43.972Z,26.73
2019-05-21T13:25:13.341Z,25.45
2019-05-21T13:27:42.717Z,25.80
2019-05-21T13:30:12.795Z,25.45
2019-05-21T13:32:43.954Z,26.30
2019-05-21T13:35:13.415Z,26.80
2019-05-21T13:37:42.882Z,25.95
2019-05-21T13:40:13.922Z,27.30
2019-05-21T13:42:43.249Z,27.30
2019-05-21T13:45:12.864Z,25.00
2019-05-21T13:47:42.226Z,25.52
2019-05-21T13:50:12.094Z,25.82
2019-05-21T13:52:41.554Z,25.57
2019-05-21T13:55:11.553Z,26.50
2019-05-21T13:57:40.945Z,24.45
2019-05-21T14:00:14.177Z,24.60
2019-05-21T14:02:43.462Z,25.20
2019-05-21T14:05:13.026Z,24.43
2019-05-21T14:07:42.466Z,24.00
2019-05-21T14:10:15.408Z,24.77
2019-05-21T14:12:43.075Z,24.57
2019-05-21T14:15:12.528Z,23.57
2019-05-21T14:17:41.858Z,24.87
2019-05-21T14:20:13.504Z,25.55
2019-05-21T14:22:42.931Z,26.03
2019-05-21T14:25:15.156Z,25.12
2019-05-21T14:27:45.289Z,25.68
2019-05-21T14:30:14.868Z,26.20
2019-05-21T14:32:48.051Z,26.40
2019-05-21T14:35:17.451Z,25.85
2019-05-21T14:37:46.770Z,25.10
2019-05-21T14:40:30.989Z,26.05
2019-05-21T14:42:59.146Z,25.35
2019-05-21T14:45:19.289Z,24.20
2019-05-21T14:47:48.687Z,25.48
2019-05-21T14:50:18.381Z,23.67
2019-05-21T14:52:51.984Z,26.27
2019-05-21T14:55:18.828Z,25.50
2019-05-21T14:57:48.155Z,25.70
2019-05-21T15:00:24.067Z,25.43
2019-05-21T15:02:53.407Z,25.17
2019-05-21T15:05:22.815Z,25.23
2019-05-21T15:07:53.619Z,24.37
2019-05-21T15:10:24.569Z,26.20
2019-05-21T15:12:53.909Z,25.48
2019-05-21T15:15:24.735Z,26.45
2019-05-21T15:17:54.154Z,25.52
2019-05-21T15:20:55.383Z,25.48
2019-05-21T15:23:24.799Z,26.75
2019-05-21T15:25:54.187Z,25.17
2019-05-21T15:28:23.573Z,25.48
2019-05-21T15:30:52.979Z,26.82
2019-05-21T15:33:23.532Z,27.15
2019-05-21T15:35:54.548Z,24.90
2019-05-21T15:38:23.893Z,26.40
2019-05-21T15:41:09.617Z,26.02
2019-05-21T15:43:24.437Z,26.50
2019-05-21T15:45:53.835Z,26.27
2019-05-21T15:48:26.389Z,24.75
2019-05-21T15:50:54.330Z,25.88
2019-05-21T15:53:23.768Z,24.32
2019-05-21T15:55:53.191Z,26.23
2019-05-21T15:58:26.546Z,26.07
2019-05-21T16:00:57.031Z,27.52
2019-05-21T16:05:55.055Z,24.87
2019-05-21T16:08:24.410Z,26.12
2019-05-21T16:10:58.470Z,26.15
2019-05-21T16:13:29.184Z,24.85
2019-05-21T16:15:58.726Z,24.55
2019-05-21T16:18:28.151Z,25.72
2019-05-21T16:20:57.730Z,25.15
2019-05-21T16:23:28.866Z,25.40
2019-05-21T16:25:58.382Z,23.67
2019-05-21T16:28:27.864Z,23.65
2019-05-21T16:30:57.314Z,22.77
2019-05-21T16:33:26.770Z,24.23
2019-05-21T16:35:56.175Z,22.95
2019-05-21T16:38:25.629Z,23.50
2019-05-21T16:40:54.987Z,23.60
2019-05-21T16:43:24.413Z,22.10
2019-05-21T16:45:53.802Z,22.75
2019-05-21T16:48:27.714Z,22.87
2019-05-21T16:50:57.240Z,24.70
2019-05-21T16:53:26.683Z,23.85
2019-05-21T16:55:56.122Z,23.47
2019-05-21T16:58:28.040Z,22.60
2019-05-21T17:01:23.495Z,20.85
2019-05-21T17:04:00.050Z,23.10
2019-05-21T17:08:23.252Z,23.45
2019-05-21T17:09:21.112Z,23.27
2019-05-21T17:12:04.949Z,22.83
2019-05-21T17:15:21.917Z,22.58
2019-05-21T17:17:07.861Z,21.55
2019-05-21T17:19:36.989Z,20.77
2019-05-21T17:22:06.380Z,21.02
2019-05-21T17:24:37.049Z,21.42
2019-05-21T17:27:37.915Z,22.02
2019-05-21T17:30:13.409Z,21.35
2019-05-21T17:32:42.868Z,22.60
2019-05-21T17:35:14.260Z,23.85
2019-05-21T17:37:43.758Z,23.42
2019-05-21T17:40:13.533Z,22.95
2019-05-21T17:42:42.969Z,23.77
2019-05-21T17:45:13.498Z,22.70
2019-05-21T17:47:42.962Z,22.85
2019-05-21T17:50:13.152Z,21.73
2019-05-21T17:52:42.534Z,20.92
2019-05-21T17:55:12.321Z,22.60
2019-05-21T17:57:42.516Z,22.40
2019-05-21T18:00:15.701Z,21.35
2019-05-21T18:02:45.539Z,21.50
2019-05-21T18:05:17.446Z,22.50
2019-05-21T18:07:47.010Z,23.05
2019-05-21T18:10:19.231Z,23.73
2019-05-21T18:12:50.746Z,24.15
2019-05-21T18:15:27.613Z,25.32
2019-05-21T18:17:53.989Z,23.57
2019-05-21T18:20:26.248Z,26.23
2019-05-21T18:22:55.739Z,25.85
2019-05-21T18:25:26.967Z,27.00
2019-05-21T18:27:56.592Z,28.15
2019-05-21T18:30:26.128Z,28.10
2019-05-21T18:32:55.683Z,29.75
2019-05-21T18:35:28.793Z,30.15
2019-05-21T18:37:58.525Z,31.23
2019-05-21T18:40:29.125Z,32.75
2019-05-21T18:42:58.560Z,32.88
2019-05-21T18:45:28.184Z,34.38
2019-05-21T18:47:57.673Z,34.75
2019-05-21T18:50:35.569Z,32.53
2019-05-21T18:52:58.472Z,32.90
2019-05-21T18:55:27.853Z,34.48
2019-05-21T18:57:57.380Z,32.55
2019-05-21T19:00:27.300Z,34.18
2019-05-21T19:02:56.882Z,32.08
2019-05-21T19:05:26.309Z,32.40
2019-05-21T19:07:55.861Z,32.00
2019-05-21T19:10:25.294Z,31.87
2019-05-21T19:12:54.826Z,32.98
2019-05-21T19:15:24.296Z,32.65
2019-05-21T19:18:21.427Z,31.90
2019-05-21T19:20:51.488Z,29.65
2019-05-21T19:23:21.121Z,31.77
2019-05-21T19:25:56.262Z,31.23
2019-05-21T19:28:29.376Z,30.92
2019-05-21T19:30:58.832Z,30.27
2019-05-21T19:33:28.291Z,28.87
2019-05-21T19:35:57.747Z,25.70
2019-05-21T19:38:27.097Z,28.85
2019-05-21T19:40:58.059Z,28.23
2019-05-21T19:43:27.444Z,29.23
2019-05-21T19:45:56.832Z,29.40
2019-05-21T19:48:26.225Z,29.63
2019-05-21T19:50:55.649Z,30.85
2019-05-21T19:53:25.017Z,31.48
2019-05-21T19:55:54.517Z,29.72
2019-05-21T19:58:23.817Z,32.28
2019-05-21T20:00:55.026Z,33.28
2019-05-21T20:03:24.818Z,34.58
2019-05-21T20:05:54.313Z,34.03
2019-05-21T20:08:23.766Z,33.67
2019-05-21T20:10:53.363Z,34.45
2019-05-21T20:13:32.224Z,32.42
2019-05-21T20:15:54.961Z,33.58
2019-05-21T20:18:24.538Z,34.65
2019-05-21T20:20:54.885Z,33.60
2019-05-21T20:23:24.821Z,34.38
2019-05-21T20:25:56.812Z,35.13
2019-05-21T20:28:26.649Z,34.88
2019-05-21T20:30:56.656Z,34.38
2019-05-21T20:33:26.129Z,34.27
2019-05-21T20:35:55.699Z,35.05
2019-05-21T20:38:31.667Z,34.00
2019-05-21T20:41:01.148Z,33.58
2019-05-21T20:43:30.818Z,34.50
2019-05-21T20:46:00.713Z,34.83
2019-05-21T20:48:32.231Z,33.85
2019-05-21T20:51:02.190Z,33.23
2019-05-21T20:53:31.620Z,32.45
2019-05-21T20:56:01.350Z,34.92
2019-05-21T20:58:31.268Z,34.58
2019-05-21T21:01:02.161Z,33.55
2019-05-21T21:03:32.707Z,33.90
2019-05-21T21:06:02.711Z,33.60
2019-05-21T21:08:34.119Z,33.98
2019-05-21T21:11:04.984Z,35.20
2019-05-21T21:13:34.325Z,32.85
2019-05-21T21:16:04.085Z,34.25
2019-05-21T21:18:34.266Z,34.75
2019-05-21T21:21:03.613Z,37.80
2019-05-21T21:23:34.810Z,38.00
2019-05-21T21:26:04.614Z,39.20
2019-05-21T21:28:33.983Z,39.33
2019-05-21T21:31:03.792Z,39.98
2019-05-21T21:33:33.842Z,40.33
2019-05-21T21:36:03.293Z,38.35
2019-05-21T21:38:34.395Z,40.08
2019-05-21T21:41:04.968Z,38.95
2019-05-21T21:43:34.357Z,38.38
2019-05-21T21:46:03.752Z,39.08
2019-05-21T21:48:33.125Z,39.73
2019-05-21T21:51:04.360Z,41.37
2019-05-21T21:53:34.395Z,40.30
2019-05-21T21:56:03.721Z,41.55
2019-05-21T21:58:33.098Z,42.00
2019-05-21T22:01:25.658Z,43.17
2019-05-21T22:03:59.445Z,43.25
2019-05-21T22:06:31.636Z,43.92
2019-05-21T22:09:01.959Z,43.70
2019-05-21T22:11:32.265Z,43.08
2019-05-21T22:14:03.344Z,43.60
2019-05-21T22:16:33.608Z,42.50
2019-05-21T22:19:03.055Z,43.55
2019-05-21T22:21:33.759Z,44.70
2019-05-21T22:24:03.291Z,44.03
2019-05-21T22:26:32.631Z,45.25
2019-05-21T22:29:02.149Z,46.75
2019-05-21T22:31:31.577Z,45.52
2019-05-21T22:34:00.918Z,45.25
2019-05-21T22:36:30.593Z,45.85
2019-05-21T22:38:59.931Z,45.25
2019-05-21T22:41:29.286Z,45.60
2019-05-21T22:43:58.628Z,44.93
2019-05-21T22:46:28.139Z,44.90
2019-05-21T22:48:57.459Z,44.73
2019-05-21T22:51:26.791Z,44.25
2019-05-21T22:53:56.108Z,45.10
2019-05-21T22:56:25.555Z,43.45
2019-05-21T22:58:54.848Z,45.03
2019-05-21T23:01:25.962Z,44.30
2019-05-21T23:03:57.120Z,43.17
2019-05-21T23:06:26.420Z,42.27
2019-05-21T23:08:56.054Z,42.08
2019-05-21T23:11:25.545Z,43.02
2019-05-21T23:13:54.899Z,43.30
2019-05-21T23:16:24.228Z,43.33
2019-05-21T23:18:54.168Z,44.15
2019-05-21T23:21:23.484Z,44.73
2019-05-21T23:23:53.624Z,44.77
2019-05-21T23:26:23.885Z,44.53
2019-05-21T23:28:54.355Z,44.67
2019-05-21T23:31:24.286Z,44.40
2019-05-21T23:33:56.326Z,43.87
2019-05-21T23:36:26.188Z,44.03
2019-05-21T23:38:57.033Z,43.63
2019-05-21T23:41:26.771Z,43.75
2019-05-21T23:43:56.183Z,41.92
2019-05-21T23:46:25.827Z,42.70
2019-05-21T23:48:55.168Z,43.15
2019-05-21T23:51:24.566Z,44.33
2019-05-21T23:53:53.910Z,43.55
2019-05-21T23:56:23.226Z,42.67
2019-05-21T23:58:52.697Z,44.67
